Time;durP1;ratioP1;P1;durP2;ratioP2;P2;SDS_P1;SDS_P2;PMS_P1;PMS_P2;Temp;Humidity;BMP_temperature;BMP_pressure;BME280_temperature;BME280_humidity;BME280_pressure;Samples;Min_cycle;Max_cycle;Signal;HPM_P1;HPM_P2
2022/11/24 00:00:12;;;;;;;3.20;1.70;;;7.80;99.90;;;;;;5043329;28;20163;-78
2022/11/24 00:02:39;;;;;;;4.38;1.08;;;7.70;99.90;;;;;;5043729;28;20063;-77
2022/11/24 00:05:06;;;;;;;1.95;1.02;;;7.70;99.90;;;;;;5042921;28;20147;-78
2022/11/24 00:07:33;;;;;;;1.65;1.00;;;7.60;99.90;;;;;;5060458;28;20044;-79
2022/11/24 00:10:00;;;;;;;2.47;0.80;;;7.70;99.90;;;;;;5060354;28;20118;-78
2022/11/24 00:12:26;;;;;;;0.80;0.65;;;7.70;99.90;;;;;;5042757;28;20059;-78
2022/11/24 00:14:53;;;;;;;1.17;0.73;;;7.70;99.90;;;;;;5060787;28;20091;-79
2022/11/24 00:17:20;;;;;;;0.70;0.50;;;7.70;99.90;;;;;;5059851;28;20049;-78
2022/11/24 00:19:47;;;;;;;1.15;0.40;;;7.80;99.90;;;;;;5042962;28;20856;-79
2022/11/24 00:22:13;;;;;;;0.50;0.50;;;7.80;99.90;;;;;;5059777;28;20422;-78
2022/11/24 00:24:40;;;;;;;0.68;0.50;;;7.70;99.90;;;;;;5042755;28;20044;-78
2022/11/24 00:27:07;;;;;;;1.08;0.45;;;7.70;99.90;;;;;;5060490;28;20056;-78
2022/11/24 00:29:34;;;;;;;2.03;0.65;;;7.70;99.90;;;;;;5026074;28;20059;-79
2022/11/24 00:32:04;;;;;;;1.80;0.73;;;7.80;99.90;;;;;;5026445;28;20107;-78
2022/11/24 00:34:32;;;;;;;2.15;1.00;;;7.80;99.90;;;;;;5058927;28;20117;-78
2022/11/24 00:36:59;;;;;;;2.83;0.95;;;7.80;99.90;;;;;;5061433;28;20530;-78
2022/11/24 00:39:26;;;;;;;3.97;1.10;;;7.90;99.90;;;;;;5041933;28;20064;-78
2022/11/24 00:41:52;;;;;;;1.98;0.98;;;7.90;99.90;;;;;;5042350;28;20144;-78
2022/11/24 00:44:19;;;;;;;3.03;1.00;;;7.90;99.90;;;;;;5042189;28;20171;-78
2022/11/24 00:46:46;;;;;;;3.60;1.27;;;7.90;99.90;;;;;;5059141;28;20104;-78
2022/11/24 00:49:13;;;;;;;2.17;1.25;;;7.90;99.90;;;;;;5059385;28;20110;-78
2022/11/24 00:51:40;;;;;;;4.47;1.10;;;7.90;99.90;;;;;;5042248;28;20049;-78
2022/11/24 00:54:08;;;;;;;2.75;0.98;;;7.90;99.90;;;;;;5060380;28;20580;-78
2022/11/24 00:56:35;;;;;;;1.17;0.70;;;7.90;99.90;;;;;;5059335;28;20195;-78
2022/11/24 00:59:02;;;;;;;3.95;1.27;;;8.00;99.90;;;;;;5045143;28;20060;-77
2022/11/24 01:01:32;;;;;;;1.50;1.08;;;8.00;99.90;;;;;;5062384;28;20040;-77
2022/11/24 01:04:02;;;;;;;1.80;1.13;;;8.00;99.90;;;;;;5062731;28;20440;-77
2022/11/24 01:06:29;;;;;;;2.05;0.77;;;8.00;99.90;;;;;;5062882;28;20083;-77
2022/11/24 01:08:56;;;;;;;4.75;1.13;;;8.00;99.90;;;;;;5032529;28;20048;-77
2022/11/24 01:12:00;;;;;;;2.88;1.58;;;8.00;99.90;;;;;;5032108;28;20438;-77
2022/11/24 01:14:21;;;;;;;1.65;0.80;;;8.10;99.90;;;;;;5065355;28;20052;-77
2022/11/24 01:16:48;;;;;;;3.25;1.00;;;8.10;99.90;;;;;;5066031;28;20048;-77
2022/11/24 01:19:14;;;;;;;3.17;1.38;;;8.10;99.90;;;;;;5032760;28;20068;-77
2022/11/24 01:21:41;;;;;;;2.88;0.95;;;8.10;99.90;;;;;;5066120;28;20048;-77
2022/11/24 01:24:09;;;;;;;2.13;1.02;;;8.10;99.90;;;;;;5031999;28;20048;-77
2022/11/24 01:26:36;;;;;;;2.33;1.10;;;8.00;99.90;;;;;;5066571;28;20052;-77
2022/11/24 01:29:03;;;;;;;2.22;0.70;;;8.00;99.90;;;;;;5065500;28;20048;-77
2022/11/24 01:31:29;;;;;;;1.27;0.90;;;7.90;99.90;;;;;;5048730;28;20052;-77
2022/11/24 01:33:56;;;;;;;2.20;0.90;;;7.90;99.90;;;;;;5065708;28;20059;-77
2022/11/24 01:36:23;;;;;;;1.48;0.88;;;7.90;99.90;;;;;;5065346;28;20048;-77
2022/11/24 01:38:50;;;;;;;2.92;0.93;;;7.80;99.90;;;;;;5065678;28;20075;-77
2022/11/24 01:41:21;;;;;;;1.73;0.70;;;7.80;99.90;;;;;;5048174;28;20091;-77
2022/11/24 01:43:48;;;;;;;1.55;0.70;;;7.70;99.90;;;;;;5032469;28;20052;-77
2022/11/24 01:46:36;;;;;;;0.32;0.32;;;7.70;99.90;;;;;;5048184;28;20498;-77
2022/11/24 01:49:23;;;;;;;0.73;0.60;;;7.60;99.90;;;;;;5065353;28;20060;-77
2022/11/24 01:51:53;;;;;;;0.90;0.68;;;7.60;99.90;;;;;;5049052;28;20056;-77
2022/11/24 01:54:27;;;;;;;1.45;0.60;;;7.50;99.90;;;;;;5064299;28;20112;-77
2022/11/24 01:56:59;;;;;;;1.73;0.80;;;7.50;99.90;;;;;;5048708;28;20055;-77
2022/11/24 01:59:26;;;;;;;0.77;0.40;;;7.50;99.90;;;;;;5032220;28;20049;-77
2022/11/24 02:01:52;;;;;;;1.92;0.82;;;7.40;99.90;;;;;;5065187;28;20434;-78
2022/11/24 02:04:22;;;;;;;1.65;0.65;;;7.40;99.90;;;;;;5047998;28;20269;-77
2022/11/24 02:06:49;;;;;;;1.02;0.60;;;7.40;99.90;;;;;;5048544;28;20136;-77
2022/11/24 02:09:28;;;;;;;0.63;0.60;;;7.30;99.90;;;;;;5031464;28;20664;-77
2022/11/24 02:11:55;;;;;;;1.25;0.95;;;7.30;99.90;;;;;;5049529;28;20157;-77
2022/11/24 02:14:22;;;;;;;2.10;0.60;;;7.30;99.90;;;;;;5031244;28;20110;-77
2022/11/24 02:16:49;;;;;;;0.70;0.60;;;7.30;99.90;;;;;;5064416;28;20048;-77
2022/11/24 02:19:39;;;;;;;0.75;0.45;;;7.30;99.90;;;;;;5048130;28;20515;-77
2022/11/24 02:22:13;;;;;;;0.93;0.55;;;7.30;99.90;;;;;;5059505;28;20052;-78
2022/11/24 02:24:48;;;;;;;2.20;0.60;;;7.20;99.90;;;;;;5031496;28;20403;-77
2022/11/24 02:27:15;;;;;;;1.58;0.65;;;7.20;99.90;;;;;;5047208;28;20114;-77
2022/11/24 02:29:42;;;;;;;1.23;0.63;;;7.20;99.90;;;;;;5061312;28;20137;-77
2022/11/24 02:32:09;;;;;;;1.33;0.68;;;7.20;99.90;;;;;;5046009;28;20380;-79
2022/11/24 02:34:35;;;;;;;0.73;0.60;;;7.10;99.90;;;;;;5059609;28;20091;-77
2022/11/24 02:37:02;;;;;;;1.02;0.63;;;7.10;99.90;;;;;;5044985;28;20049;-77
2022/11/24 02:39:29;;;;;;;0.82;0.50;;;7.10;99.90;;;;;;5043682;28;20064;-77
2022/11/24 02:41:58;;;;;;;1.10;0.60;;;7.10;99.90;;;;;;5046772;28;20056;-77
2022/11/24 02:44:26;;;;;;;2.42;0.88;;;7.00;99.90;;;;;;5046371;28;20056;-77
2022/11/24 02:47:07;;;;;;;1.63;0.77;;;7.00;99.90;;;;;;5029947;28;20048;-77
2022/11/24 02:49:35;;;;;;;2.10;1.00;;;7.00;99.90;;;;;;5046342;28;20057;-77
2022/11/24 02:52:01;;;;;;;1.77;0.70;;;7.00;99.90;;;;;;5046904;28;20131;-77
2022/11/24 02:54:28;;;;;;;0.95;0.55;;;7.00;99.90;;;;;;5045819;28;20056;-77
2022/11/24 02:56:55;;;;;;;1.10;0.70;;;7.00;99.90;;;;;;5062756;28;20048;-76
2022/11/24 02:59:22;;;;;;;1.55;1.02;;;7.00;99.90;;;;;;5046185;28;20052;-76
2022/11/24 03:01:49;;;;;;;2.08;0.82;;;7.10;99.90;;;;;;5064012;28;20082;-77
2022/11/24 03:04:15;;;;;;;2.85;0.82;;;7.10;99.90;;;;;;5046277;28;20084;-77
2022/11/24 03:06:42;;;;;;;1.27;0.80;;;7.10;99.90;;;;;;5029286;28;20123;-76
2022/11/24 03:09:10;;;;;;;1.85;0.73;;;7.20;99.90;;;;;;5046425;28;20063;-76
2022/11/24 03:11:37;;;;;;;2.03;0.82;;;7.20;99.90;;;;;;5045643;28;20540;-76
2022/11/24 03:14:04;;;;;;;1.65;0.93;;;7.20;99.90;;;;;;5063877;28;20391;-77
2022/11/24 03:16:31;;;;;;;1.30;0.75;;;7.20;99.90;;;;;;5045945;28;20497;-76
2022/11/24 03:18:58;;;;;;;2.10;1.45;;;7.20;99.90;;;;;;5063090;28;20450;-77
2022/11/24 03:21:25;;;;;;;3.03;0.80;;;7.20;99.90;;;;;;5061597;28;20059;-77
2022/11/24 03:23:52;;;;;;;1.80;0.80;;;7.20;99.90;;;;;;5045624;28;20076;-77
2022/11/24 03:26:20;;;;;;;1.83;0.65;;;7.20;99.90;;;;;;5029161;28;20074;-77
2022/11/24 03:28:46;;;;;;;1.65;0.70;;;7.20;99.90;;;;;;5046037;28;20101;-76
2022/11/24 03:31:13;;;;;;;1.27;0.70;;;7.20;99.90;;;;;;5044806;28;20059;-77
2022/11/24 03:33:40;;;;;;;1.45;0.60;;;7.20;99.90;;;;;;5045875;28;20049;-78
2022/11/24 03:36:07;;;;;;;1.35;0.63;;;7.20;99.90;;;;;;5029382;28;20060;-77
2022/11/24 03:38:34;;;;;;;1.17;0.63;;;7.20;99.90;;;;;;5062390;28;20135;-77
2022/11/24 03:41:01;;;;;;;0.88;0.40;;;7.10;99.90;;;;;;5045440;28;20063;-76
2022/11/24 03:43:27;;;;;;;1.20;0.60;;;7.10;99.90;;;;;;5044941;28;20144;-77
2022/11/24 03:45:54;;;;;;;1.95;0.80;;;7.00;99.90;;;;;;5045390;28;20053;-77
2022/11/24 03:48:21;;;;;;;1.13;0.60;;;7.10;99.90;;;;;;5029299;28;20083;-77
2022/11/24 03:50:58;;;;;;;1.67;0.82;;;7.10;99.90;;;;;;5045000;28;20067;-77
2022/11/24 03:53:25;;;;;;;2.65;0.70;;;7.10;99.90;;;;;;5029385;28;20052;-76
2022/11/24 03:55:52;;;;;;;1.08;0.70;;;7.00;99.90;;;;;;5045190;28;20127;-77
2022/11/24 03:58:19;;;;;;;1.63;0.65;;;7.00;99.90;;;;;;5045105;28;20044;-77
2022/11/24 04:00:49;;;;;;;2.88;0.90;;;7.00;99.90;;;;;;5025287;28;20049;-77
2022/11/24 04:03:16;;;;;;;1.92;0.70;;;7.00;99.90;;;;;;5025871;28;20148;-76
2022/11/24 04:05:43;;;;;;;1.88;0.80;;;6.90;99.90;;;;;;5025708;28;20663;-77
2022/11/24 04:08:09;;;;;;;2.03;0.73;;;6.90;99.90;;;;;;5025218;28;20567;-77
2022/11/24 04:10:37;;;;;;;0.55;0.50;;;7.00;99.90;;;;;;5025267;28;20559;-76
2022/11/24 04:13:09;;;;;;;2.38;1.00;;;6.90;99.90;;;;;;5033346;28;20064;-77
2022/11/24 04:15:38;;;;;;;1.30;0.70;;;7.00;99.90;;;;;;5045789;28;20049;-76
2022/11/24 04:18:05;;;;;;;1.70;0.70;;;7.00;99.90;;;;;;5045785;28;20076;-77
2022/11/24 04:20:32;;;;;;;1.77;0.80;;;7.00;99.90;;;;;;5044927;28;20553;-76
2022/11/24 04:22:58;;;;;;;1.27;0.65;;;7.00;99.90;;;;;;5044974;28;20483;-77
2022/11/24 04:25:25;;;;;;;1.42;0.73;;;7.00;99.90;;;;;;5061863;28;20071;-76
2022/11/24 04:27:53;;;;;;;2.83;0.80;;;7.00;99.90;;;;;;5028494;28;20057;-77
2022/11/24 04:30:20;;;;;;;2.05;1.08;;;6.90;99.90;;;;;;5061645;28;20070;-77
2022/11/24 04:32:47;;;;;;;2.10;0.80;;;6.90;99.90;;;;;;5042883;28;20060;-76
2022/11/24 04:35:14;;;;;;;3.00;1.00;;;6.90;99.90;;;;;;5045134;28;20057;-77
2022/11/24 04:37:40;;;;;;;2.03;0.65;;;6.90;99.90;;;;;;5029711;28;20077;-78
2022/11/24 04:40:08;;;;;;;1.70;0.70;;;6.90;99.90;;;;;;5049258;28;20131;-76
2022/11/24 04:42:35;;;;;;;1.85;0.80;;;6.90;99.90;;;;;;5048634;28;20089;-77
2022/11/24 04:45:02;;;;;;;3.20;0.85;;;6.90;99.90;;;;;;5048926;28;20083;-77
2022/11/24 04:47:29;;;;;;;1.17;0.47;;;6.80;99.90;;;;;;5048971;28;20135;-77
2022/11/24 04:49:56;;;;;;;3.05;0.60;;;6.80;99.90;;;;;;5031627;28;20099;-77
2022/11/24 04:52:23;;;;;;;1.27;0.47;;;6.80;99.90;;;;;;5059777;28;20123;-78
2022/11/24 04:54:50;;;;;;;0.95;0.50;;;6.80;99.90;;;;;;5064566;28;20144;-77
2022/11/24 04:57:19;;;;;;;1.80;0.88;;;6.80;99.90;;;;;;5060513;28;20117;-77
2022/11/24 04:59:45;;;;;;;1.73;0.73;;;6.80;99.90;;;;;;5062575;28;20052;-77
2022/11/24 05:02:12;;;;;;;1.40;0.77;;;6.80;99.90;;;;;;5045423;28;20068;-77
2022/11/24 05:04:39;;;;;;;0.80;0.57;;;6.80;99.90;;;;;;5064607;28;20052;-77
2022/11/24 05:07:07;;;;;;;1.33;0.70;;;6.80;99.90;;;;;;5061254;28;20052;-77
2022/11/24 05:12:30;;;;;;;4.80;1.00;;;6.80;99.90;;;;;;5056927;28;20061;-77
2022/11/24 05:14:58;;;;;;;0.75;0.52;;;6.80;99.90;;;;;;5044491;28;20071;-77
2022/11/24 05:17:31;;;;;;;2.35;1.10;;;6.80;99.90;;;;;;5052022;28;20085;-77
2022/11/24 05:19:57;;;;;;;1.25;0.60;;;6.80;99.90;;;;;;5052197;28;20140;-78
2022/11/24 05:22:24;;;;;;;0.98;0.63;;;6.80;99.90;;;;;;5042874;28;20062;-78
2022/11/24 05:24:51;;;;;;;1.63;0.70;;;6.80;99.90;;;;;;5040791;28;20044;-77
2022/11/24 05:27:18;;;;;;;1.70;0.63;;;6.80;99.90;;;;;;5024918;28;20555;-78
2022/11/24 05:29:45;;;;;;;1.33;0.75;;;6.80;99.90;;;;;;5062171;28;20044;-77
2022/11/24 05:32:11;;;;;;;1.00;0.60;;;6.80;99.90;;;;;;5058051;28;20048;-77
2022/11/24 05:34:38;;;;;;;0.85;0.60;;;6.80;99.90;;;;;;5076552;28;20050;-77
2022/11/24 05:37:05;;;;;;;1.02;0.70;;;6.80;99.90;;;;;;5067979;28;20049;-77
2022/11/24 05:39:35;;;;;;;1.48;0.80;;;6.80;99.90;;;;;;5043323;28;20159;-77
2022/11/24 05:42:39;;;;;;;1.67;0.88;;;6.80;99.90;;;;;;5042642;28;20136;-77
2022/11/24 05:44:50;;;;;;;0.95;0.70;;;6.80;99.90;;;;;;5051358;28;20288;-77
2022/11/24 05:47:18;;;;;;;1.25;0.50;;;6.80;99.90;;;;;;5062738;28;20497;-77
2022/11/24 05:49:44;;;;;;;1.13;0.80;;;6.80;99.90;;;;;;5072202;28;20056;-77
2022/11/24 05:52:11;;;;;;;0.80;0.57;;;6.70;99.90;;;;;;5042395;28;20051;-77
2022/11/24 05:54:38;;;;;;;3.17;1.00;;;6.70;99.90;;;;;;5055464;28;20056;-76
2022/11/24 05:57:05;;;;;;;3.08;0.90;;;6.70;99.90;;;;;;5040179;28;20520;-77
2022/11/24 05:59:32;;;;;;;1.45;0.60;;;6.70;99.90;;;;;;5058941;28;20059;-77
2022/11/24 06:01:59;;;;;;;0.90;0.55;;;6.70;99.90;;;;;;5051356;28;20636;-76
2022/11/24 06:04:26;;;;;;;1.02;0.57;;;6.70;99.90;;;;;;5040768;28;20048;-78
2022/11/24 06:06:52;;;;;;;0.98;0.55;;;6.70;99.90;;;;;;5059838;28;20096;-79
2022/11/24 06:09:19;;;;;;;2.50;0.70;;;6.80;99.90;;;;;;5042411;28;20052;-77
2022/11/24 06:11:46;;;;;;;1.45;0.73;;;6.80;99.90;;;;;;5066052;28;20044;-78
2022/11/24 06:14:13;;;;;;;1.60;0.60;;;6.80;99.90;;;;;;5078151;28;20051;-76
2022/11/24 06:16:40;;;;;;;1.65;0.70;;;6.80;99.90;;;;;;5066572;28;20059;-77
2022/11/24 06:19:08;;;;;;;1.15;0.50;;;6.80;99.90;;;;;;5049355;28;20132;-76
2022/11/24 06:21:35;;;;;;;1.73;0.73;;;6.80;99.90;;;;;;5038559;28;20128;-78
2022/11/24 06:24:02;;;;;;;0.98;0.50;;;6.70;99.90;;;;;;5044839;28;20063;-77
2022/11/24 06:26:29;;;;;;;0.88;0.50;;;6.70;99.90;;;;;;5059303;28;20068;-77
2022/11/24 06:28:55;;;;;;;0.85;0.43;;;6.60;99.90;;;;;;5058142;28;20048;-77
2022/11/24 06:31:22;;;;;;;0.70;0.70;;;6.60;99.90;;;;;;5039822;28;20048;-77
2022/11/24 06:33:49;;;;;;;1.27;0.70;;;6.60;99.90;;;;;;5039995;28;20102;-76
2022/11/24 06:36:16;;;;;;;0.88;0.65;;;6.60;99.90;;;;;;5024472;28;20067;-77
2022/11/24 06:38:43;;;;;;;1.30;0.77;;;6.70;99.90;;;;;;5056928;28;20710;-76
2022/11/24 06:41:13;;;;;;;1.85;0.80;;;6.80;99.90;;;;;;5058182;28;20119;-77
2022/11/24 06:43:40;;;;;;;3.88;0.95;;;6.80;99.90;;;;;;5058885;28;20041;-77
2022/11/24 06:46:07;;;;;;;1.77;1.00;;;6.80;99.90;;;;;;5059041;28;20076;-77
2022/11/24 06:48:34;;;;;;;2.88;0.90;;;6.80;99.90;;;;;;5040382;28;20071;-78
2022/11/24 06:51:06;;;;;;;3.47;1.35;;;6.90;99.90;;;;;;5026097;28;20049;-76
2022/11/24 06:53:37;;;;;;;1.58;0.73;;;6.90;99.90;;;;;;5059052;28;20052;-77
2022/11/24 06:56:05;;;;;;;1.83;0.80;;;7.00;99.90;;;;;;5055448;28;20044;-77
2022/11/24 06:58:42;;;;;;;2.13;0.80;;;6.90;99.90;;;;;;5070290;28;20048;-77
2022/11/24 07:01:12;;;;;;;2.00;0.85;;;6.90;99.90;;;;;;5044239;28;20365;-78
2022/11/24 07:03:39;;;;;;;2.42;1.30;;;6.80;99.90;;;;;;5060438;28;20052;-78
2022/11/24 07:06:06;;;;;;;2.40;1.23;;;6.80;99.90;;;;;;5043651;28;20070;-77
2022/11/24 07:08:33;;;;;;;1.13;0.63;;;6.80;99.90;;;;;;5042837;28;20071;-79
2022/11/24 07:11:07;;;;;;;2.00;0.65;;;6.70;99.90;;;;;;5061698;28;20141;-77
2022/11/24 07:13:33;;;;;;;0.82;0.55;;;6.60;99.90;;;;;;5055427;28;20495;-77
2022/11/24 07:16:12;;;;;;;0.98;0.68;;;6.70;99.90;;;;;;5059820;28;20052;-77
2022/11/24 07:18:39;;;;;;;1.38;0.60;;;6.60;99.90;;;;;;5059883;28;20530;-77
2022/11/24 07:21:06;;;;;;;2.42;0.88;;;6.60;99.90;;;;;;5043646;28;20044;-77
2022/11/24 07:23:32;;;;;;;1.33;0.50;;;6.60;99.90;;;;;;5043600;28;20056;-77
2022/11/24 07:26:02;;;;;;;1.30;0.65;;;6.60;99.90;;;;;;5043377;28;20164;-77
2022/11/24 07:28:33;;;;;;;2.45;0.68;;;6.50;99.90;;;;;;5043552;28;20135;-77
2022/11/24 07:31:07;;;;;;;2.40;0.98;;;6.50;99.90;;;;;;5043631;28;20131;-77
2022/11/24 07:33:34;;;;;;;1.02;0.70;;;6.50;99.90;;;;;;5043564;28;20063;-77
2022/11/24 07:36:01;;;;;;;1.65;0.68;;;6.50;99.90;;;;;;5043430;28;20056;-77
2022/11/24 07:38:28;;;;;;;2.03;0.75;;;6.60;99.90;;;;;;5061017;28;20514;-77
2022/11/24 07:40:59;;;;;;;1.00;0.63;;;6.60;99.90;;;;;;5042910;28;20136;-77
2022/11/24 07:43:27;;;;;;;0.93;0.60;;;6.60;99.90;;;;;;5059204;28;20113;-79
2022/11/24 07:45:53;;;;;;;2.05;0.80;;;6.60;99.90;;;;;;5043730;28;20056;-80
2022/11/24 07:48:20;;;;;;;1.13;0.50;;;6.70;99.90;;;;;;5043354;28;20110;-77
2022/11/24 07:50:47;;;;;;;2.90;0.60;;;6.70;99.90;;;;;;5059183;28;20063;-77
2022/11/24 07:53:21;;;;;;;0.55;0.50;;;6.90;99.90;;;;;;5029120;28;20106;-80
2022/11/24 07:55:54;;;;;;;1.52;0.50;;;7.00;99.90;;;;;;5026376;28;20601;-77
2022/11/24 07:58:22;;;;;;;1.45;0.65;;;7.10;99.90;;;;;;5058796;28;20056;-77
2022/11/24 08:00:54;;;;;;;2.70;1.10;;;7.20;99.90;;;;;;5059334;28;20144;-77
2022/11/24 08:03:21;;;;;;;1.25;0.70;;;7.30;99.90;;;;;;5026687;28;20090;-77
2022/11/24 08:05:58;;;;;;;1.55;1.02;;;7.40;99.90;;;;;;5043148;28;20063;-77
2022/11/24 08:08:45;;;;;;;1.15;0.90;;;7.40;99.90;;;;;;5063501;28;20437;-77
2022/11/24 08:11:16;;;;;;;1.75;0.80;;;7.50;99.90;;;;;;5046348;28;20052;-77
2022/11/24 08:13:43;;;;;;;0.93;0.82;;;7.50;99.90;;;;;;5046922;28;20044;-77
2022/11/24 08:16:11;;;;;;;2.05;1.00;;;7.60;99.90;;;;;;5046416;28;20058;-77
2022/11/24 08:18:38;;;;;;;1.73;0.95;;;7.60;99.90;;;;;;5030475;28;20052;-77
2022/11/24 08:21:05;;;;;;;1.48;0.63;;;7.70;99.90;;;;;;5030120;28;20488;-77
2022/11/24 08:23:32;;;;;;;1.38;0.68;;;7.70;99.90;;;;;;5029816;28;20479;-77
2022/11/24 08:26:04;;;;;;;0.98;0.75;;;7.70;99.90;;;;;;5047217;28;20239;-77
2022/11/24 08:28:31;;;;;;;2.58;1.65;;;7.80;99.90;;;;;;5046083;28;20528;-77
2022/11/24 08:31:02;;;;;;;2.08;1.00;;;7.80;99.90;;;;;;5048206;28;20267;-77
2022/11/24 08:33:29;;;;;;;1.40;0.50;;;7.90;99.90;;;;;;5050327;28;20048;-77
2022/11/24 08:36:01;;;;;;;1.63;0.80;;;7.90;99.90;;;;;;5048573;28;20063;-77
2022/11/24 08:38:27;;;;;;;1.83;0.82;;;8.00;99.90;;;;;;5047230;28;20195;-77
2022/11/24 08:40:58;;;;;;;2.25;0.70;;;8.10;99.90;;;;;;5064296;28;20052;-77
2022/11/24 08:43:24;;;;;;;1.73;0.73;;;8.10;99.90;;;;;;5050091;28;20103;-77
2022/11/24 08:45:51;;;;;;;3.58;0.90;;;8.10;99.90;;;;;;5049263;28;20508;-77
2022/11/24 08:48:18;;;;;;;3.70;0.95;;;8.10;99.90;;;;;;5033051;28;20091;-77
2022/11/24 08:50:45;;;;;;;1.80;0.73;;;8.20;99.90;;;;;;5065735;28;20060;-77
2022/11/24 08:53:12;;;;;;;2.10;0.80;;;8.20;99.90;;;;;;5066507;28;20055;-77
2022/11/24 08:55:39;;;;;;;2.58;1.45;;;8.30;99.90;;;;;;5067368;28;20447;-77
2022/11/24 08:58:06;;;;;;;2.00;0.90;;;8.30;99.90;;;;;;5032045;28;20061;-77
2022/11/24 09:00:32;;;;;;;2.00;1.13;;;8.30;99.90;;;;;;5049532;28;20510;-77
2022/11/24 09:02:59;;;;;;;2.28;1.20;;;8.40;99.90;;;;;;5033262;28;20059;-77
2022/11/24 09:05:26;;;;;;;4.68;1.52;;;8.50;99.90;;;;;;5065802;28;20412;-77
2022/11/24 09:08:12;;;;;;;5.07;1.30;;;8.50;99.90;;;;;;5052468;28;20056;-77
2022/11/24 09:10:39;;;;;;;1.70;0.90;;;8.60;99.90;;;;;;5048989;28;20143;-77
2022/11/24 09:13:06;;;;;;;3.63;1.25;;;8.70;99.90;;;;;;5065506;28;20051;-77
2022/11/24 09:15:34;;;;;;;3.25;1.27;;;8.80;99.90;;;;;;5049057;28;20041;-77
2022/11/24 09:18:01;;;;;;;1.58;0.93;;;8.90;99.90;;;;;;5048725;28;20431;-77
2022/11/24 09:20:27;;;;;;;1.25;0.90;;;9.00;99.90;;;;;;5042084;28;21796;-77
2022/11/24 09:22:55;;;;;;;3.90;1.48;;;9.10;99.90;;;;;;5058277;28;20055;-77
2022/11/24 09:25:22;;;;;;;4.47;1.67;;;9.10;99.90;;;;;;5063865;28;20224;-77
2022/11/24 09:27:50;;;;;;;4.72;2.38;;;9.20;99.90;;;;;;5056098;28;20495;-77
2022/11/24 09:30:16;;;;;;;6.55;3.45;;;9.30;99.90;;;;;;5053049;28;20051;-77
2022/11/24 09:32:43;;;;;;;3.50;2.72;;;9.40;99.90;;;;;;5064243;28;20052;-77
2022/11/24 09:35:10;;;;;;;5.43;3.60;;;9.50;99.90;;;;;;5060178;28;20052;-77
2022/11/24 09:37:36;;;;;;;5.35;3.58;;;9.60;99.90;;;;;;5062419;28;20055;-78
2022/11/24 09:40:04;;;;;;;5.82;3.35;;;9.70;99.90;;;;;;5062871;28;20419;-77
2022/11/24 09:42:55;;;;;;;3.55;2.22;;;9.80;99.90;;;;;;5066294;28;20056;-78
2022/11/24 09:45:41;;;;;;;5.20;2.08;;;9.90;99.90;;;;;;5043260;28;20177;-79
2022/11/24 09:48:32;;;;;;;4.68;2.42;;;10.00;99.90;;;;;;5074619;28;20125;-78
2022/11/24 09:51:00;;;;;;;4.68;1.83;;;10.10;99.90;;;;;;5055383;28;20060;-78
2022/11/24 09:53:36;;;;;;;5.38;1.90;;;10.20;99.90;;;;;;5045292;28;20049;-78
2022/11/24 09:56:18;;;;;;;3.90;1.83;;;10.20;99.90;;;;;;5061724;28;20135;-77
2022/11/24 09:58:52;;;;;;;2.60;1.60;;;10.30;99.90;;;;;;5045457;28;20051;-77
2022/11/24 10:01:23;;;;;;;7.20;2.63;;;10.40;99.90;;;;;;5045571;28;20453;-78
2022/11/24 10:03:50;;;;;;;4.13;1.88;;;10.50;99.90;;;;;;5046126;28;20344;-77
2022/11/24 10:06:37;;;;;;;3.60;1.05;;;10.50;99.90;;;;;;5044932;28;20048;-78
2022/11/24 10:09:38;;;;;;;4.90;1.92;;;10.60;99.90;;;;;;5061518;28;20143;-78
2022/11/24 10:12:16;;;;;;;4.10;1.42;;;10.70;99.90;;;;;;5061637;28;20057;-78
2022/11/24 10:14:49;;;;;;;2.67;1.58;;;10.80;99.90;;;;;;5061255;28;20052;-78
2022/11/24 10:17:31;;;;;;;3.17;1.40;;;10.90;99.90;;;;;;5061341;28;20076;-78
2022/11/24 10:20:01;;;;;;;4.43;1.65;;;11.00;99.90;;;;;;5060507;28;20063;-78
2022/11/24 10:22:57;;;;;;;4.95;1.65;;;11.10;99.90;;;;;;5061831;28;20534;-78
2022/11/24 10:25:27;;;;;;;4.32;1.58;;;11.20;99.90;;;;;;5041977;28;20048;-78
2022/11/24 10:28:02;;;;;;;3.22;1.55;;;11.20;99.90;;;;;;5027844;28;20087;-78
2022/11/24 10:30:30;;;;;;;3.63;1.75;;;11.20;99.90;;;;;;5058969;28;20048;-78
2022/11/24 10:33:18;;;;;;;4.10;1.48;;;11.10;99.90;;;;;;5027773;28;20099;-78
2022/11/24 10:36:02;;;;;;;3.45;1.70;;;11.10;99.90;;;;;;5060808;28;20106;-78
2022/11/24 10:38:48;;;;;;;5.30;1.70;;;11.10;99.90;;;;;;5044469;28;20056;-78
2022/11/24 10:41:42;;;;;;;2.03;1.42;;;11.10;99.90;;;;;;5060479;28;20083;-78
2022/11/24 10:44:14;;;;;;;2.40;1.10;;;11.10;99.90;;;;;;5058713;28;20068;-78
2022/11/24 10:46:41;;;;;;;4.50;1.80;;;11.20;99.90;;;;;;5044773;28;20048;-78
2022/11/24 10:49:30;;;;;;;3.47;1.38;;;11.30;99.90;;;;;;5027896;28;20044;-78
2022/11/24 10:52:12;;;;;;;4.43;1.63;;;11.40;99.90;;;;;;5060930;28;20502;-78
2022/11/24 10:54:58;;;;;;;4.25;2.25;;;11.50;99.90;;;;;;5043439;28;20053;-78
2022/11/24 10:57:38;;;;;;;6.32;2.15;;;11.60;99.90;;;;;;5043895;28;20143;-80
2022/11/24 11:00:17;;;;;;;5.10;1.90;;;11.70;99.90;;;;;;5044567;28;20040;-78
2022/11/24 11:02:44;;;;;;;4.32;1.85;;;11.80;99.90;;;;;;5061111;28;20071;-78
2022/11/24 11:05:34;;;;;;;4.65;2.05;;;11.80;99.90;;;;;;5027350;28;20074;-78
2022/11/24 11:08:13;;;;;;;5.03;1.98;;;11.90;99.90;;;;;;5043350;28;20818;-78
2022/11/24 11:10:43;;;;;;;6.13;2.83;;;11.90;99.90;;;;;;5062078;28;20454;-78
2022/11/24 11:13:20;;;;;;;6.22;3.00;;;12.00;99.90;;;;;;5043430;28;20056;-78
2022/11/24 11:15:47;;;;;;;5.50;2.25;;;12.10;99.90;;;;;;5043718;28;20056;-78
2022/11/24 11:18:15;;;;;;;4.47;2.17;;;12.10;99.90;;;;;;5043887;28;20056;-78
2022/11/24 11:20:53;;;;;;;6.47;2.55;;;12.20;99.90;;;;;;5043886;28;20474;-78
2022/11/24 11:23:30;;;;;;;4.90;2.22;;;12.20;99.90;;;;;;5026802;28;20052;-78
2022/11/24 11:26:16;;;;;;;5.47;2.75;;;12.20;99.90;;;;;;5043864;28;20056;-78
2022/11/24 11:28:56;;;;;;;4.88;2.45;;;12.30;99.90;;;;;;5059685;28;20147;-78
2022/11/24 11:31:23;;;;;;;3.80;1.80;;;12.30;99.90;;;;;;5060061;28;20495;-78
2022/11/24 11:33:55;;;;;;;5.18;2.10;;;12.40;99.90;;;;;;5043819;28;20489;-78
2022/11/24 11:36:33;;;;;;;;;;;12.40;99.90;;;;;;5060376;28;20044;-77
2022/11/24 11:39:01;;;;;;;7.43;2.30;;;12.40;99.90;;;;;;5036784;28;19928;-80
2022/11/24 11:41:40;;;;;;;6.65;2.65;;;12.30;99.90;;;;;;5046018;28;20083;-80
2022/11/24 11:44:29;;;;;;;5.20;2.10;;;12.40;99.90;;;;;;5058377;28;20062;-79
2022/11/24 11:46:57;;;;;;;5.40;2.47;;;12.50;99.90;;;;;;5047378;28;20053;-78
2022/11/24 11:49:24;;;;;;;4.97;2.35;;;12.60;99.90;;;;;;5059449;28;20118;-78
2022/11/24 11:51:55;;;;;;;4.05;1.65;;;12.60;99.90;;;;;;5057967;28;20134;-79
2022/11/24 11:54:42;;;;;;;4.03;2.17;;;12.70;99.90;;;;;;5056851;28;20135;-79
2022/11/24 11:57:21;;;;;;;5.90;1.85;;;12.80;99.90;;;;;;5055773;28;20063;-79
2022/11/24 12:00:08;;;;;;;6.25;1.75;;;12.90;99.90;;;;;;5055310;28;20143;-79
2022/11/24 12:03:09;;;;;;;4.15;2.22;;;13.00;99.90;;;;;;5025065;28;20377;-79
2022/11/24 12:05:50;;;;;;;6.13;2.13;;;13.20;99.90;;;;;;5049831;28;20060;-79
2022/11/24 12:08:23;;;;;;;3.38;1.38;;;13.30;99.90;;;;;;5052912;28;20163;-79
2022/11/24 12:11:15;;;;;;;3.72;1.60;;;13.20;99.90;;;;;;5057901;28;20067;-78
2022/11/24 12:13:48;;;;;;;4.73;1.60;;;13.30;99.90;;;;;;5050325;28;20495;-79
2022/11/24 12:16:26;;;;;;;4.80;2.00;;;13.30;99.90;;;;;;5059052;28;20121;-78
2022/11/24 12:19:09;;;;;;;4.38;1.63;;;13.40;99.90;;;;;;5038850;28;20060;-78
2022/11/24 12:21:54;;;;;;;5.90;1.90;;;13.30;99.90;;;;;;5053192;28;20040;-78
2022/11/24 12:24:40;;;;;;;5.55;2.17;;;13.30;99.90;;;;;;5017325;28;20411;-78
2022/11/24 12:27:20;;;;;;;6.93;1.70;;;13.30;99.90;;;;;;5052409;28;20135;-79
2022/11/24 12:30:09;;;;;;;4.82;1.90;;;13.30;99.90;;;;;;5057983;28;20808;-78
2022/11/24 12:32:37;;;;;;;3.38;1.70;;;13.20;99.90;;;;;;5058010;28;20159;-79
2022/11/24 12:35:10;;;;;;;4.47;2.15;;;13.30;99.90;;;;;;5053109;28;20084;-79
2022/11/24 12:38:24;;;;;;;6.75;2.20;;;13.30;99.90;;;;;;5052375;28;20415;-79
2022/11/24 12:41:10;;;;;;;;;;;13.40;99.90;;;;;;5037898;28;20405;-79
2022/11/24 12:43:58;;;;;;;4.68;1.85;;;13.50;99.90;;;;;;5059894;28;20355;-79
2022/11/24 12:46:38;;;;;;;5.05;2.22;;;13.60;99.90;;;;;;5023058;28;20076;-79
2022/11/24 12:49:30;;;;;;;7.03;1.95;;;13.70;99.90;;;;;;5055214;28;20048;-79
2022/11/24 12:52:00;;;;;;;5.10;2.28;;;13.70;99.90;;;;;;5043157;28;20052;-79
2022/11/24 12:54:28;;;;;;;5.38;2.13;;;13.70;99.90;;;;;;5018205;28;20134;-80
2022/11/24 12:57:00;;;;;;;5.50;2.30;;;13.70;99.90;;;;;;5031528;28;20427;-79
2022/11/24 12:59:32;;;;;;;4.80;2.13;;;13.80;99.90;;;;;;5045000;28;20106;-78
2022/11/24 13:02:04;;;;;;;5.38;2.95;;;13.80;99.90;;;;;;5062286;28;20060;-79
2022/11/24 13:04:36;;;;;;;4.97;2.42;;;13.90;99.90;;;;;;5044795;28;20054;-78
2022/11/24 13:07:11;;;;;;;5.35;2.40;;;13.90;99.90;;;;;;5063056;28;20080;-78
2022/11/24 13:09:58;;;;;;;6.15;2.42;;;13.90;99.90;;;;;;5043893;28;20061;-79
2022/11/24 13:12:25;;;;;;;7.18;2.45;;;13.90;99.90;;;;;;5064804;28;20256;-79
2022/11/24 13:14:51;;;;;;;5.70;1.80;;;14.00;99.90;;;;;;5045339;28;20419;-78
2022/11/24 13:17:32;;;;;;;4.93;1.95;;;14.00;99.90;;;;;;5042513;28;20262;-79